sensor_id;sensor_type;location;lat;lon;timestamp;temperature;humidity
43665;DHT22;29263;48.172;11.484;2023-10-13T00:00:29;17.00;87.10
43665;DHT22;29263;48.172;11.484;2023-10-13T00:02:58;16.90;87.70
43665;DHT22;29263;48.172;11.484;2023-10-13T00:05:30;16.90;88.80
43665;DHT22;29263;48.172;11.484;2023-10-13T00:07:57;16.80;89.20
43665;DHT22;29263;48.172;11.484;2023-10-13T00:10:27;16.80;88.70
43665;DHT22;29263;48.172;11.484;2023-10-13T00:12:52;16.70;88.70
43665;DHT22;29263;48.172;11.484;2023-10-13T00:15:18;16.70;89.10
43665;DHT22;29263;48.172;11.484;2023-10-13T00:17:46;16.70;89.20
43665;DHT22;29263;48.172;11.484;2023-10-13T00:20:12;16.60;90.60
43665;DHT22;29263;48.172;11.484;2023-10-13T00:22:57;16.50;90.00
43665;DHT22;29263;48.172;11.484;2023-10-13T00:25:23;16.50;89.40
43665;DHT22;29263;48.172;11.484;2023-10-13T00:27:57;16.50;89.90
43665;DHT22;29263;48.172;11.484;2023-10-13T00:30:23;16.50;89.50
43665;DHT22;29263;48.172;11.484;2023-10-13T00:32:59;16.50;89.60
43665;DHT22;29263;48.172;11.484;2023-10-13T00:35:28;16.50;89.60
43665;DHT22;29263;48.172;11.484;2023-10-13T00:37:57;16.50;88.60
43665;DHT22;29263;48.172;11.484;2023-10-13T00:40:25;16.50;89.30
43665;DHT22;29263;48.172;11.484;2023-10-13T00:42:57;16.40;90.40
43665;DHT22;29263;48.172;11.484;2023-10-13T00:45:41;16.40;90.30
43665;DHT22;29263;48.172;11.484;2023-10-13T00:48:09;16.40;90.50
43665;DHT22;29263;48.172;11.484;2023-10-13T00:50:37;16.30;90.70
43665;DHT22;29263;48.172;11.484;2023-10-13T00:53:04;16.30;90.70
43665;DHT22;29263;48.172;11.484;2023-10-13T00:55:29;16.30;90.40
43665;DHT22;29263;48.172;11.484;2023-10-13T00:57:59;16.30;90.50
43665;DHT22;29263;48.172;11.484;2023-10-13T01:00:32;16.30;90.60
43665;DHT22;29263;48.172;11.484;2023-10-13T01:02:58;16.30;90.90
43665;DHT22;29263;48.172;11.484;2023-10-13T01:05:32;16.20;91.40
43665;DHT22;29263;48.172;11.484;2023-10-13T01:08:02;16.20;91.30
43665;DHT22;29263;48.172;11.484;2023-10-13T01:10:28;16.10;91.80
43665;DHT22;29263;48.172;11.484;2023-10-13T01:12:58;16.10;91.70
43665;DHT22;29263;48.172;11.484;2023-10-13T01:15:27;16.10;91.30
43665;DHT22;29263;48.172;11.484;2023-10-13T01:18:11;16.10;90.80
43665;DHT22;29263;48.172;11.484;2023-10-13T01:20:42;16.10;90.60
43665;DHT22;29263;48.172;11.484;2023-10-13T01:23:12;16.00;90.90
43665;DHT22;29263;48.172;11.484;2023-10-13T01:25:44;16.00;91.20
43665;DHT22;29263;48.172;11.484;2023-10-13T01:28:11;16.00;91.60
43665;DHT22;29263;48.172;11.484;2023-10-13T01:30:44;15.90;91.50
43665;DHT22;29263;48.172;11.484;2023-10-13T01:33:16;15.90;91.50
43665;DHT22;29263;48.172;11.484;2023-10-13T01:35:42;15.90;91.10
43665;DHT22;29263;48.172;11.484;2023-10-13T01:38:13;15.90;91.20
43665;DHT22;29263;48.172;11.484;2023-10-13T01:40:39;15.90;91.00
43665;DHT22;29263;48.172;11.484;2023-10-13T01:43:05;15.90;91.00
43665;DHT22;29263;48.172;11.484;2023-10-13T01:45:37;15.90;91.20
43665;DHT22;29263;48.172;11.484;2023-10-13T01:48:05;15.80;91.40
43665;DHT22;29263;48.172;11.484;2023-10-13T01:50:35;15.80;91.60
43665;DHT22;29263;48.172;11.484;2023-10-13T01:53:01;15.80;91.90
43665;DHT22;29263;48.172;11.484;2023-10-13T01:55:43;15.70;91.70
43665;DHT22;29263;48.172;11.484;2023-10-13T01:58:13;15.60;91.60
43665;DHT22;29263;48.172;11.484;2023-10-13T02:00:45;15.60;92.20
43665;DHT22;29263;48.172;11.484;2023-10-13T02:03:13;15.50;92.10
43665;DHT22;29263;48.172;11.484;2023-10-13T02:05:48;15.50;92.40
43665;DHT22;29263;48.172;11.484;2023-10-13T02:08:15;15.50;92.60
43665;DHT22;29263;48.172;11.484;2023-10-13T02:10:51;15.50;92.90
43665;DHT22;29263;48.172;11.484;2023-10-13T02:13:18;15.40;93.20
43665;DHT22;29263;48.172;11.484;2023-10-13T02:15:45;15.40;93.40
43665;DHT22;29263;48.172;11.484;2023-10-13T02:18:14;15.40;92.60
43665;DHT22;29263;48.172;11.484;2023-10-13T02:20:49;15.30;93.00
43665;DHT22;29263;48.172;11.484;2023-10-13T02:23:26;15.20;93.00
43665;DHT22;29263;48.172;11.484;2023-10-13T02:25:55;15.20;93.20
43665;DHT22;29263;48.172;11.484;2023-10-13T02:28:28;15.10;93.40
43665;DHT22;29263;48.172;11.484;2023-10-13T02:31:02;15.00;93.50
43665;DHT22;29263;48.172;11.484;2023-10-13T02:33:29;14.90;93.60
43665;DHT22;29263;48.172;11.484;2023-10-13T02:36:02;14.80;93.50
43665;DHT22;29263;48.172;11.484;2023-10-13T02:38:32;14.80;93.80
43665;DHT22;29263;48.172;11.484;2023-10-13T02:41:15;14.70;93.70
43665;DHT22;29263;48.172;11.484;2023-10-13T02:43:51;14.70;93.40
43665;DHT22;29263;48.172;11.484;2023-10-13T02:46:17;14.70;93.60
43665;DHT22;29263;48.172;11.484;2023-10-13T02:48:43;14.60;94.20
43665;DHT22;29263;48.172;11.484;2023-10-13T02:51:12;14.60;94.30
43665;DHT22;29263;48.172;11.484;2023-10-13T02:53:45;14.50;94.50
43665;DHT22;29263;48.172;11.484;2023-10-13T02:56:17;14.50;94.40
43665;DHT22;29263;48.172;11.484;2023-10-13T02:58:52;14.50;94.50
43665;DHT22;29263;48.172;11.484;2023-10-13T03:01:32;14.40;94.60
43665;DHT22;29263;48.172;11.484;2023-10-13T03:04:01;14.40;94.80
43665;DHT22;29263;48.172;11.484;2023-10-13T03:06:27;14.30;95.00
43665;DHT22;29263;48.172;11.484;2023-10-13T03:09:00;14.30;95.30
43665;DHT22;29263;48.172;11.484;2023-10-13T03:11:39;14.20;95.30
43665;DHT22;29263;48.172;11.484;2023-10-13T03:14:09;14.10;95.80
43665;DHT22;29263;48.172;11.484;2023-10-13T03:16:41;14.10;96.00
43665;DHT22;29263;48.172;11.484;2023-10-13T03:19:06;14.10;96.00
43665;DHT22;29263;48.172;11.484;2023-10-13T03:21:35;14.00;95.70
43665;DHT22;29263;48.172;11.484;2023-10-13T03:24:02;14.00;95.60
43665;DHT22;29263;48.172;11.484;2023-10-13T03:26:32;14.00;95.70
43665;DHT22;29263;48.172;11.484;2023-10-13T03:29:02;13.90;95.80
43665;DHT22;29263;48.172;11.484;2023-10-13T03:31:30;13.90;95.70
43665;DHT22;29263;48.172;11.484;2023-10-13T03:33:55;13.80;96.00
43665;DHT22;29263;48.172;11.484;2023-10-13T03:36:26;13.80;96.00
43665;DHT22;29263;48.172;11.484;2023-10-13T03:39:10;13.80;96.20
43665;DHT22;29263;48.172;11.484;2023-10-13T03:41:36;13.80;96.40
43665;DHT22;29263;48.172;11.484;2023-10-13T03:44:05;13.70;96.50
43665;DHT22;29263;48.172;11.484;2023-10-13T03:46:44;13.70;96.90
43665;DHT22;29263;48.172;11.484;2023-10-13T03:49:14;13.60;97.50
43665;DHT22;29263;48.172;11.484;2023-10-13T03:51:40;13.60;97.50
43665;DHT22;29263;48.172;11.484;2023-10-13T03:54:05;13.60;97.30
43665;DHT22;29263;48.172;11.484;2023-10-13T03:56:35;13.50;97.40
43665;DHT22;29263;48.172;11.484;2023-10-13T03:59:07;13.40;97.60
43665;DHT22;29263;48.172;11.484;2023-10-13T04:01:38;13.40;97.70
43665;DHT22;29263;48.172;11.484;2023-10-13T04:04:23;13.30;97.30
43665;DHT22;29263;48.172;11.484;2023-10-13T04:06:55;13.30;97.50
43665;DHT22;29263;48.172;11.484;2023-10-13T04:09:35;13.30;97.80
43665;DHT22;29263;48.172;11.484;2023-10-13T04:12:10;13.30;98.00
43665;DHT22;29263;48.172;11.484;2023-10-13T04:14:43;13.30;98.10
43665;DHT22;29263;48.172;11.484;2023-10-13T04:17:09;13.30;98.00
43665;DHT22;29263;48.172;11.484;2023-10-13T04:19:43;13.40;98.00
43665;DHT22;29263;48.172;11.484;2023-10-13T04:22:27;13.40;98.20
43665;DHT22;29263;48.172;11.484;2023-10-13T04:25:20;13.40;98.50
43665;DHT22;29263;48.172;11.484;2023-10-13T04:28:07;13.40;98.50
43665;DHT22;29263;48.172;11.484;2023-10-13T04:36:08;13.40;98.40
43665;DHT22;29263;48.172;11.484;2023-10-13T04:38:56;13.40;98.20
43665;DHT22;29263;48.172;11.484;2023-10-13T04:41:28;13.40;98.10
43665;DHT22;29263;48.172;11.484;2023-10-13T04:44:07;13.30;98.20
43665;DHT22;29263;48.172;11.484;2023-10-13T04:46:53;13.30;98.20
43665;DHT22;29263;48.172;11.484;2023-10-13T04:49:26;13.30;98.30
43665;DHT22;29263;48.172;11.484;2023-10-13T04:51:56;13.20;98.40
43665;DHT22;29263;48.172;11.484;2023-10-13T04:54:28;13.20;98.80
43665;DHT22;29263;48.172;11.484;2023-10-13T04:57:14;13.20;98.90
43665;DHT22;29263;48.172;11.484;2023-10-13T04:59:59;13.20;99.00
43665;DHT22;29263;48.172;11.484;2023-10-13T05:02:39;13.20;98.90
43665;DHT22;29263;48.172;11.484;2023-10-13T05:05:15;13.20;99.20
43665;DHT22;29263;48.172;11.484;2023-10-13T05:07:44;13.20;99.40
43665;DHT22;29263;48.172;11.484;2023-10-13T05:10:29;13.10;99.60
43665;DHT22;29263;48.172;11.484;2023-10-13T05:13:13;13.10;99.60
43665;DHT22;29263;48.172;11.484;2023-10-13T05:15:58;13.10;99.70
43665;DHT22;29263;48.172;11.484;2023-10-13T05:18:42;13.00;99.60
43665;DHT22;29263;48.172;11.484;2023-10-13T05:21:26;13.00;99.40
43665;DHT22;29263;48.172;11.484;2023-10-13T05:24:10;13.00;99.40
43665;DHT22;29263;48.172;11.484;2023-10-13T05:26:54;13.00;99.40
43665;DHT22;29263;48.172;11.484;2023-10-13T05:29:42;13.00;99.60
43665;DHT22;29263;48.172;11.484;2023-10-13T05:32:26;13.00;99.40
43665;DHT22;29263;48.172;11.484;2023-10-13T05:35:15;13.00;99.70
43665;DHT22;29263;48.172;11.484;2023-10-13T05:37:59;13.00;99.90
43665;DHT22;29263;48.172;11.484;2023-10-13T05:41:00;12.90;99.90
43665;DHT22;29263;48.172;11.484;2023-10-13T05:43:45;12.90;99.90
43665;DHT22;29263;48.172;11.484;2023-10-13T05:46:29;12.90;99.90
43665;DHT22;29263;48.172;11.484;2023-10-13T05:49:05;12.90;99.90
43665;DHT22;29263;48.172;11.484;2023-10-13T05:51:36;12.90;99.90
43665;DHT22;29263;48.172;11.484;2023-10-13T05:54:18;12.90;99.90
43665;DHT22;29263;48.172;11.484;2023-10-13T05:56:45;12.90;99.60
43665;DHT22;29263;48.172;11.484;2023-10-13T05:59:30;12.90;99.20
43665;DHT22;29263;48.172;11.484;2023-10-13T06:02:16;12.90;99.20
43665;DHT22;29263;48.172;11.484;2023-10-13T06:05:05;12.90;99.10
43665;DHT22;29263;48.172;11.484;2023-10-13T06:07:49;13.00;99.10
43665;DHT22;29263;48.172;11.484;2023-10-13T06:10:33;13.00;99.20
43665;DHT22;29263;48.172;11.484;2023-10-13T06:13:17;13.00;99.30
43665;DHT22;29263;48.172;11.484;2023-10-13T06:16:13;13.10;99.30
43665;DHT22;29263;48.172;11.484;2023-10-13T06:18:57;13.10;99.00
43665;DHT22;29263;48.172;11.484;2023-10-13T06:21:42;13.20;99.20
43665;DHT22;29263;48.172;11.484;2023-10-13T06:24:28;13.20;99.10
43665;DHT22;29263;48.172;11.484;2023-10-13T06:27:17;13.20;99.40
43665;DHT22;29263;48.172;11.484;2023-10-13T06:30:02;13.30;99.30
43665;DHT22;29263;48.172;11.484;2023-10-13T06:32:30;13.30;99.10
43665;DHT22;29263;48.172;11.484;2023-10-13T06:34:57;13.30;98.90
43665;DHT22;29263;48.172;11.484;2023-10-13T06:37:24;13.40;99.00
43665;DHT22;29263;48.172;11.484;2023-10-13T06:39:50;13.40;99.20
43665;DHT22;29263;48.172;11.484;2023-10-13T06:42:16;13.40;99.20
43665;DHT22;29263;48.172;11.484;2023-10-13T06:44:45;13.40;99.00
43665;DHT22;29263;48.172;11.484;2023-10-13T06:47:12;13.40;98.90
43665;DHT22;29263;48.172;11.484;2023-10-13T06:49:41;13.50;99.10
43665;DHT22;29263;48.172;11.484;2023-10-13T06:52:09;13.60;98.70
43665;DHT22;29263;48.172;11.484;2023-10-13T06:54:36;13.70;98.50
43665;DHT22;29263;48.172;11.484;2023-10-13T06:57:05;13.80;98.40
43665;DHT22;29263;48.172;11.484;2023-10-13T06:59:33;13.90;98.00
43665;DHT22;29263;48.172;11.484;2023-10-13T07:02:02;14.00;97.40
43665;DHT22;29263;48.172;11.484;2023-10-13T07:04:32;14.00;97.00
43665;DHT22;29263;48.172;11.484;2023-10-13T07:06:58;14.10;96.50
43665;DHT22;29263;48.172;11.484;2023-10-13T07:09:26;14.10;96.30
43665;DHT22;29263;48.172;11.484;2023-10-13T07:12:05;14.20;96.60
43665;DHT22;29263;48.172;11.484;2023-10-13T07:14:50;14.20;96.20
43665;DHT22;29263;48.172;11.484;2023-10-13T07:17:24;14.30;95.90
43665;DHT22;29263;48.172;11.484;2023-10-13T07:20:00;14.40;95.60
43665;DHT22;29263;48.172;11.484;2023-10-13T07:22:40;14.50;95.40
43665;DHT22;29263;48.172;11.484;2023-10-13T07:25:21;14.60;94.50
43665;DHT22;29263;48.172;11.484;2023-10-13T07:27:50;14.70;94.00
43665;DHT22;29263;48.172;11.484;2023-10-13T07:30:17;14.80;93.80
43665;DHT22;29263;48.172;11.484;2023-10-13T07:32:51;14.90;93.70
43665;DHT22;29263;48.172;11.484;2023-10-13T07:35:25;15.00;94.60
43665;DHT22;29263;48.172;11.484;2023-10-13T07:38:00;15.00;94.30
43665;DHT22;29263;48.172;11.484;2023-10-13T07:40:26;15.10;94.10
43665;DHT22;29263;48.172;11.484;2023-10-13T07:42:56;15.10;94.60
43665;DHT22;29263;48.172;11.484;2023-10-13T07:45:29;15.20;94.40
43665;DHT22;29263;48.172;11.484;2023-10-13T07:48:06;15.40;94.10
43665;DHT22;29263;48.172;11.484;2023-10-13T07:51:03;15.40;93.20
43665;DHT22;29263;48.172;11.484;2023-10-13T07:53:30;15.60;93.80
43665;DHT22;29263;48.172;11.484;2023-10-13T07:56:22;15.70;92.10
43665;DHT22;29263;48.172;11.484;2023-10-13T07:58:48;15.80;91.90
43665;DHT22;29263;48.172;11.484;2023-10-13T08:01:26;16.00;92.10
43665;DHT22;29263;48.172;11.484;2023-10-13T08:03:52;16.10;91.60
43665;DHT22;29263;48.172;11.484;2023-10-13T08:06:30;16.20;91.40
43665;DHT22;29263;48.172;11.484;2023-10-13T08:08:56;16.40;90.90
43665;DHT22;29263;48.172;11.484;2023-10-13T08:11:33;16.50;90.00
43665;DHT22;29263;48.172;11.484;2023-10-13T08:14:06;16.60;90.20
43665;DHT22;29263;48.172;11.484;2023-10-13T08:16:47;16.70;90.80
43665;DHT22;29263;48.172;11.484;2023-10-13T08:19:22;16.90;90.30
43665;DHT22;29263;48.172;11.484;2023-10-13T08:21:58;17.00;90.40
43665;DHT22;29263;48.172;11.484;2023-10-13T08:24:26;17.10;90.10
43665;DHT22;29263;48.172;11.484;2023-10-13T08:27:16;17.20;89.30
43665;DHT22;29263;48.172;11.484;2023-10-13T08:29:42;17.40;89.10
43665;DHT22;29263;48.172;11.484;2023-10-13T08:32:34;17.50;88.10
43665;DHT22;29263;48.172;11.484;2023-10-13T08:35:23;17.70;88.70
43665;DHT22;29263;48.172;11.484;2023-10-13T08:37:55;17.80;88.40
43665;DHT22;29263;48.172;11.484;2023-10-13T08:40:23;17.90;88.90
43665;DHT22;29263;48.172;11.484;2023-10-13T08:43:10;18.10;86.90
43665;DHT22;29263;48.172;11.484;2023-10-13T08:45:39;18.20;85.70
43665;DHT22;29263;48.172;11.484;2023-10-13T08:48:06;18.30;82.20
43665;DHT22;29263;48.172;11.484;2023-10-13T08:50:48;18.40;83.00
43665;DHT22;29263;48.172;11.484;2023-10-13T08:55:56;18.70;82.30
43665;DHT22;29263;48.172;11.484;2023-10-13T08:58:41;18.90;81.40
43665;DHT22;29263;48.172;11.484;2023-10-13T09:01:28;19.00;76.90
43665;DHT22;29263;48.172;11.484;2023-10-13T09:04:08;19.10;76.40
43665;DHT22;29263;48.172;11.484;2023-10-13T09:06:57;19.30;75.40
43665;DHT22;29263;48.172;11.484;2023-10-13T09:09:29;19.40;75.30
43665;DHT22;29263;48.172;11.484;2023-10-13T09:14:40;19.60;74.20
43665;DHT22;29263;48.172;11.484;2023-10-13T09:17:23;19.70;73.40
43665;DHT22;29263;48.172;11.484;2023-10-13T09:20:08;19.80;74.00
43665;DHT22;29263;48.172;11.484;2023-10-13T09:22:56;20.00;72.40
43665;DHT22;29263;48.172;11.484;2023-10-13T09:25:28;20.10;71.40
43665;DHT22;29263;48.172;11.484;2023-10-13T09:28:14;20.20;70.40
43665;DHT22;29263;48.172;11.484;2023-10-13T09:30:47;20.40;70.70
43665;DHT22;29263;48.172;11.484;2023-10-13T09:33:13;20.50;71.20
43665;DHT22;29263;48.172;11.484;2023-10-13T09:35:45;20.50;71.30
43665;DHT22;29263;48.172;11.484;2023-10-13T09:38:17;20.60;70.80
43665;DHT22;29263;48.172;11.484;2023-10-13T09:40:43;20.80;67.10
43665;DHT22;29263;48.172;11.484;2023-10-13T09:43:18;20.90;67.10
43665;DHT22;29263;48.172;11.484;2023-10-13T09:45:47;21.00;68.40
43665;DHT22;29263;48.172;11.484;2023-10-13T09:48:37;21.10;66.30
43665;DHT22;29263;48.172;11.484;2023-10-13T09:51:13;21.20;64.40
43665;DHT22;29263;48.172;11.484;2023-10-13T09:53:41;21.30;64.50
43665;DHT22;29263;48.172;11.484;2023-10-13T09:56:14;21.30;63.50
43665;DHT22;29263;48.172;11.484;2023-10-13T09:58:58;21.40;64.40
43665;DHT22;29263;48.172;11.484;2023-10-13T10:01:28;21.50;65.30
43665;DHT22;29263;48.172;11.484;2023-10-13T10:04:08;21.60;66.30
43665;DHT22;29263;48.172;11.484;2023-10-13T10:06:57;21.60;65.30
43665;DHT22;29263;48.172;11.484;2023-10-13T10:09:30;21.70;65.00
43665;DHT22;29263;48.172;11.484;2023-10-13T10:15:19;21.80;62.80
43665;DHT22;29263;48.172;11.484;2023-10-13T10:17:54;21.90;63.80
43665;DHT22;29263;48.172;11.484;2023-10-13T10:20:31;22.00;62.00
43665;DHT22;29263;48.172;11.484;2023-10-13T10:23:27;22.10;61.80
43665;DHT22;29263;48.172;11.484;2023-10-13T10:25:54;22.20;64.60
43665;DHT22;29263;48.172;11.484;2023-10-13T10:28:38;22.20;62.20
43665;DHT22;29263;48.172;11.484;2023-10-13T10:31:05;22.30;61.20
43665;DHT22;29263;48.172;11.484;2023-10-13T10:33:31;22.40;61.50
43665;DHT22;29263;48.172;11.484;2023-10-13T10:36:00;22.40;61.50
43665;DHT22;29263;48.172;11.484;2023-10-13T10:38:25;22.40;61.50
43665;DHT22;29263;48.172;11.484;2023-10-13T10:40:55;22.60;59.50
43665;DHT22;29263;48.172;11.484;2023-10-13T10:43:29;22.70;57.80
43665;DHT22;29263;48.172;11.484;2023-10-13T10:46:10;22.70;60.60
43665;DHT22;29263;48.172;11.484;2023-10-13T10:48:37;22.80;59.10
43665;DHT22;29263;48.172;11.484;2023-10-13T10:51:10;22.80;56.10
43665;DHT22;29263;48.172;11.484;2023-10-13T10:53:48;22.80;59.10
43665;DHT22;29263;48.172;11.484;2023-10-13T10:56:21;22.80;58.60
43665;DHT22;29263;48.172;11.484;2023-10-13T10:59:06;22.90;57.10
43665;DHT22;29263;48.172;11.484;2023-10-13T11:01:43;23.00;55.30
43665;DHT22;29263;48.172;11.484;2023-10-13T11:04:13;23.00;56.50
43665;DHT22;29263;48.172;11.484;2023-10-13T11:06:54;23.10;57.10
43665;DHT22;29263;48.172;11.484;2023-10-13T11:09:34;23.20;56.90
43665;DHT22;29263;48.172;11.484;2023-10-13T11:14:39;23.20;60.80
43665;DHT22;29263;48.172;11.484;2023-10-13T11:17:05;23.20;57.30
43665;DHT22;29263;48.172;11.484;2023-10-13T11:19:43;23.30;57.40
43665;DHT22;29263;48.172;11.484;2023-10-13T11:22:15;23.30;56.60
43665;DHT22;29263;48.172;11.484;2023-10-13T11:25:01;23.50;56.60
43665;DHT22;29263;48.172;11.484;2023-10-13T11:27:40;23.50;55.40
43665;DHT22;29263;48.172;11.484;2023-10-13T11:30:19;23.50;58.30
43665;DHT22;29263;48.172;11.484;2023-10-13T11:32:59;23.60;55.60
43665;DHT22;29263;48.172;11.484;2023-10-13T11:35:25;23.60;53.20
43665;DHT22;29263;48.172;11.484;2023-10-13T11:37:51;23.70;57.80
43665;DHT22;29263;48.172;11.484;2023-10-13T11:40:30;23.80;54.80
43665;DHT22;29263;48.172;11.484;2023-10-13T11:43:14;23.90;52.90
43665;DHT22;29263;48.172;11.484;2023-10-13T11:45:41;24.00;55.10
43665;DHT22;29263;48.172;11.484;2023-10-13T11:48:25;24.00;55.90
43665;DHT22;29263;48.172;11.484;2023-10-13T11:51:02;23.90;55.90
43665;DHT22;29263;48.172;11.484;2023-10-13T11:53:37;23.90;53.70
43665;DHT22;29263;48.172;11.484;2023-10-13T11:56:04;24.00;54.30
43665;DHT22;29263;48.172;11.484;2023-10-13T11:58:38;24.00;53.40
43665;DHT22;29263;48.172;11.484;2023-10-13T12:01:05;24.10;53.60
43665;DHT22;29263;48.172;11.484;2023-10-13T12:03:36;24.20;53.00
43665;DHT22;29263;48.172;11.484;2023-10-13T12:06:20;24.30;54.00
43665;DHT22;29263;48.172;11.484;2023-10-13T12:09:09;24.40;54.90
43665;DHT22;29263;48.172;11.484;2023-10-13T12:11:48;24.40;56.40
43665;DHT22;29263;48.172;11.484;2023-10-13T12:14:17;24.40;51.80
43665;DHT22;29263;48.172;11.484;2023-10-13T12:16:57;24.40;53.50
43665;DHT22;29263;48.172;11.484;2023-10-13T12:19:29;24.50;54.20
43665;DHT22;29263;48.172;11.484;2023-10-13T12:21:56;24.40;55.20
43665;DHT22;29263;48.172;11.484;2023-10-13T12:24:27;24.50;54.40
43665;DHT22;29263;48.172;11.484;2023-10-13T12:27:08;24.50;54.00
43665;DHT22;29263;48.172;11.484;2023-10-13T12:29:52;24.60;55.10
43665;DHT22;29263;48.172;11.484;2023-10-13T12:32:19;24.60;51.30
43665;DHT22;29263;48.172;11.484;2023-10-13T12:34:56;24.70;53.00
43665;DHT22;29263;48.172;11.484;2023-10-13T12:37:23;24.70;52.20
43665;DHT22;29263;48.172;11.484;2023-10-13T12:40:12;24.80;50.90
43665;DHT22;29263;48.172;11.484;2023-10-13T12:42:57;24.90;52.10
43665;DHT22;29263;48.172;11.484;2023-10-13T12:45:46;25.00;48.00
43665;DHT22;29263;48.172;11.484;2023-10-13T12:48:31;25.20;46.60
43665;DHT22;29263;48.172;11.484;2023-10-13T12:51:16;25.30;46.70
43665;DHT22;29263;48.172;11.484;2023-10-13T12:53:57;25.30;47.70
43665;DHT22;29263;48.172;11.484;2023-10-13T12:56:52;25.30;48.20
43665;DHT22;29263;48.172;11.484;2023-10-13T12:59:22;25.40;48.60
43665;DHT22;29263;48.172;11.484;2023-10-13T13:01:52;25.40;49.40
43665;DHT22;29263;48.172;11.484;2023-10-13T13:04:18;25.30;49.90
43665;DHT22;29263;48.172;11.484;2023-10-13T13:06:46;25.30;49.50
43665;DHT22;29263;48.172;11.484;2023-10-13T13:09:12;25.40;49.60
43665;DHT22;29263;48.172;11.484;2023-10-13T13:11:38;25.40;46.80
43665;DHT22;29263;48.172;11.484;2023-10-13T13:14:06;25.50;47.20
43665;DHT22;29263;48.172;11.484;2023-10-13T13:16:35;25.50;48.30
43665;DHT22;29263;48.172;11.484;2023-10-13T13:19:04;25.50;47.90
43665;DHT22;29263;48.172;11.484;2023-10-13T13:21:37;25.50;48.50
43665;DHT22;29263;48.172;11.484;2023-10-13T13:24:02;25.50;47.60
43665;DHT22;29263;48.172;11.484;2023-10-13T13:26:30;25.60;47.70
43665;DHT22;29263;48.172;11.484;2023-10-13T13:28:56;25.60;48.20
43665;DHT22;29263;48.172;11.484;2023-10-13T13:31:23;25.60;48.40
43665;DHT22;29263;48.172;11.484;2023-10-13T13:33:54;25.70;48.60
43665;DHT22;29263;48.172;11.484;2023-10-13T13:36:20;25.80;48.50
43665;DHT22;29263;48.172;11.484;2023-10-13T13:38:47;25.80;47.60
43665;DHT22;29263;48.172;11.484;2023-10-13T13:41:17;25.70;48.80
43665;DHT22;29263;48.172;11.484;2023-10-13T13:46:16;25.70;48.60
43665;DHT22;29263;48.172;11.484;2023-10-13T13:48:42;25.80;49.50
43665;DHT22;29263;48.172;11.484;2023-10-13T13:51:08;25.80;48.20
43665;DHT22;29263;48.172;11.484;2023-10-13T13:53:44;25.80;47.80
43665;DHT22;29263;48.172;11.484;2023-10-13T13:56:14;25.90;48.60
43665;DHT22;29263;48.172;11.484;2023-10-13T13:58:48;26.00;50.50
43665;DHT22;29263;48.172;11.484;2023-10-13T14:01:15;26.20;51.10
43665;DHT22;29263;48.172;11.484;2023-10-13T14:03:44;26.40;47.80
43665;DHT22;29263;48.172;11.484;2023-10-13T14:06:21;26.50;47.10
43665;DHT22;29263;48.172;11.484;2023-10-13T14:08:49;26.50;47.60
43665;DHT22;29263;48.172;11.484;2023-10-13T14:11:17;26.80;48.90
43665;DHT22;29263;48.172;11.484;2023-10-13T14:14:01;27.60;48.20
43665;DHT22;29263;48.172;11.484;2023-10-13T14:16:30;29.00;46.80
43665;DHT22;29263;48.172;11.484;2023-10-13T14:18:59;30.00;47.00
43665;DHT22;29263;48.172;11.484;2023-10-13T14:21:28;30.90;45.60
43665;DHT22;29263;48.172;11.484;2023-10-13T14:23:54;31.70;44.40
43665;DHT22;29263;48.172;11.484;2023-10-13T14:26:20;32.10;42.60
43665;DHT22;29263;48.172;11.484;2023-10-13T14:28:47;31.70;43.10
43665;DHT22;29263;48.172;11.484;2023-10-13T14:31:29;30.90;44.00
43665;DHT22;29263;48.172;11.484;2023-10-13T14:33:55;29.90;44.10
43665;DHT22;29263;48.172;11.484;2023-10-13T14:36:22;29.00;44.50
43665;DHT22;29263;48.172;11.484;2023-10-13T14:38:48;28.40;44.70
43665;DHT22;29263;48.172;11.484;2023-10-13T14:41:17;27.80;45.30
43665;DHT22;29263;48.172;11.484;2023-10-13T14:43:44;27.30;46.40
43665;DHT22;29263;48.172;11.484;2023-10-13T14:46:16;26.80;47.50
43665;DHT22;29263;48.172;11.484;2023-10-13T14:48:45;26.50;48.70
43665;DHT22;29263;48.172;11.484;2023-10-13T14:51:14;26.20;49.10
43665;DHT22;29263;48.172;11.484;2023-10-13T14:53:42;25.90;49.50
43665;DHT22;29263;48.172;11.484;2023-10-13T14:56:18;25.80;50.70
43665;DHT22;29263;48.172;11.484;2023-10-13T14:58:44;25.60;48.10
43665;DHT22;29263;48.172;11.484;2023-10-13T15:01:13;25.50;48.70
43665;DHT22;29263;48.172;11.484;2023-10-13T15:03:44;25.30;50.80
43665;DHT22;29263;48.172;11.484;2023-10-13T15:06:20;25.20;51.70
43665;DHT22;29263;48.172;11.484;2023-10-13T15:08:47;25.00;52.00
43665;DHT22;29263;48.172;11.484;2023-10-13T15:11:14;24.90;53.70
43665;DHT22;29263;48.172;11.484;2023-10-13T15:13:40;24.70;53.50
43665;DHT22;29263;48.172;11.484;2023-10-13T15:18:47;24.40;55.50
43665;DHT22;29263;48.172;11.484;2023-10-13T15:21:20;24.20;55.50
43665;DHT22;29263;48.172;11.484;2023-10-13T15:23:48;24.10;56.20
43665;DHT22;29263;48.172;11.484;2023-10-13T15:26:14;23.90;56.30
43665;DHT22;29263;48.172;11.484;2023-10-13T15:28:41;23.80;57.80
43665;DHT22;29263;48.172;11.484;2023-10-13T15:31:15;23.80;56.30
43665;DHT22;29263;48.172;11.484;2023-10-13T15:33:59;23.70;56.30
43665;DHT22;29263;48.172;11.484;2023-10-13T15:36:25;23.60;57.20
43665;DHT22;29263;48.172;11.484;2023-10-13T15:38:51;23.50;58.00
43665;DHT22;29263;48.172;11.484;2023-10-13T15:41:27;23.50;58.70
43665;DHT22;29263;48.172;11.484;2023-10-13T15:43:53;23.40;58.60
43665;DHT22;29263;48.172;11.484;2023-10-13T15:46:21;23.30;58.40
43665;DHT22;29263;48.172;11.484;2023-10-13T15:48:48;23.20;58.80
43665;DHT22;29263;48.172;11.484;2023-10-13T15:51:14;23.10;59.10
43665;DHT22;29263;48.172;11.484;2023-10-13T15:53:40;23.00;58.50
43665;DHT22;29263;48.172;11.484;2023-10-13T15:56:06;22.90;60.00
43665;DHT22;29263;48.172;11.484;2023-10-13T15:58:38;22.70;59.40
43665;DHT22;29263;48.172;11.484;2023-10-13T16:01:05;22.60;58.70
43665;DHT22;29263;48.172;11.484;2023-10-13T16:03:33;22.50;60.00
43665;DHT22;29263;48.172;11.484;2023-10-13T16:06:02;22.30;60.30
43665;DHT22;29263;48.172;11.484;2023-10-13T16:08:30;22.20;61.70
43665;DHT22;29263;48.172;11.484;2023-10-13T16:11:06;22.00;62.00
43665;DHT22;29263;48.172;11.484;2023-10-13T16:13:39;22.00;64.40
43665;DHT22;29263;48.172;11.484;2023-10-13T16:16:05;21.80;65.90